• Join FlightAware (Why Join?)
  • Login
  • US Flag 
10:32PM EDT


 

Airport Tracker/Info


-or-


 

Live Flight TrackerFlight Track Log ✈ CSN6763 ✈ 10-Oct-2013 ✈ ZGSZ / SZX - ZHLY / LYA

Flight Track Log - Related Links

Times and Time Zones

All times are in EDT time to prevent confusion due to time zone crossing. See the CSN6763 flight status page for this flight to view local times or setup timezone preferences in your user account.

Time Position Orientation Groundspeed Altitude Reporting Facility
EDT Latitude Longitude Course Direction KTS MPH feet Rate Location/Type
09:06PM 22.7642 113.7992 354° North  Level Estimated
09:07PM 22.8890 113.7860 354° North  Level Estimated
09:08PM 23.0138 113.7728 354° North  Level Estimated
09:09PM 23.1385 113.7596 354° North  Level Estimated
09:10PM 23.2633 113.7463 354° North  Level Estimated
09:11PM 23.3880 113.7330 354° North  Level Estimated
09:12PM 23.5128 113.7197 354° North  Level Estimated
09:13PM 23.6375 113.7063 354° North  Level Estimated
09:14PM 23.7623 113.6930 354° North  Level Estimated
09:15PM 23.8870 113.6796 354° North  Level Estimated
09:16PM 24.0118 113.6661 354° North  Level Estimated
09:17PM 24.1365 113.6527 354° North  Level Estimated
09:18PM 24.2613 113.6392 354° North  Level Estimated
09:19PM 24.3860 113.6257 354° North  Level Estimated
09:20PM 24.5107 113.6122 354° North  Level Estimated
09:21PM 24.6355 113.5986 354° North  Level Estimated
09:22PM 24.7602 113.5850 354° North  Level Estimated
09:23PM 24.8850 113.5714 354° North  Level Estimated
09:24PM 25.0097 113.5578 354° North  Level Estimated
09:25PM 25.1344 113.5441 354° North  Level Estimated
09:26PM 25.2592 113.5304 354° North  Level Estimated
09:27PM 25.3839 113.5167 354° North  Level Estimated
09:28PM 25.5086 113.5030 354° North  Level Estimated
09:29PM 25.6334 113.4892 354° North  Level Estimated
09:30PM 25.7581 113.4754 354° North  Level Estimated
09:31PM 25.8828 113.4615 354° North  Level Estimated
09:32PM 26.0076 113.4477 354° North  Level Estimated
09:33PM 26.1323 113.4338 354° North  Level Estimated
09:34PM 26.2570 113.4199 354° North  Level Estimated
09:35PM 26.3817 113.4059 354° North  Level Estimated
09:36PM 26.5065 113.3919 354° North  Level Estimated
09:37PM 26.6312 113.3779 354° North  Level Estimated
09:38PM 26.7559 113.3639 354° North  Level Estimated
09:39PM 26.8806 113.3498 354° North  Level Estimated
09:40PM 27.0053 113.3357 354° North  Level Estimated
09:41PM 27.1301 113.3215 354° North  Level Estimated
09:42PM 27.2548 113.3074 354° North  Level Estimated
09:43PM 27.3795 113.2932 354° North  Level Estimated
09:44PM 27.5042 113.2789 354° North  Level Estimated
09:45PM 27.6289 113.2646 354° North  Level Estimated
09:46PM 27.7536 113.2504 354° North  Level Estimated
09:47PM 27.8783 113.2360 354° North  Level Estimated
09:48PM 28.0030 113.2217 354° North  Level Estimated
09:49PM 28.1277 113.2073 354° North  Level Estimated
09:50PM 28.2524 113.1928 354° North  Level Estimated
09:51PM 28.3771 113.1784 354° North  Level Estimated
09:52PM 28.5018 113.1639 354° North  Level Estimated
09:53PM 28.6265 113.1493 354° North  Level Estimated
09:54PM 28.7512 113.1348 354° North  Level Estimated
09:55PM 28.8759 113.1202 354° North  Level Estimated
09:56PM 29.0006 113.1055 354° North  Level Estimated
09:57PM 29.1253 113.0909 354° North  Level Estimated
09:58PM 29.2333 113.0781 354° North  Level Estimated
09:59PM 29.3413 113.0654 354° North  Level Estimated
10:00PM 29.4493 113.0526 354° North  Level Estimated
10:01PM 29.5573 113.0397 354° North  Level Estimated
10:02PM 29.6653 113.0269 354° North  Level Estimated
10:03PM 29.7732 113.0140 354° North  Level Estimated
10:04PM 29.8812 113.0011 354° North  Level Estimated
10:05PM 29.9892 112.9882 354° North  Level Estimated
10:06PM 30.0972 112.9752 354° North  Level Estimated
10:07PM 30.2052 112.9622 354° North  Level Estimated
10:08PM 30.3131 112.9492 354° North  Level Estimated
10:09PM 30.4211 112.9362 354° North  Level Estimated
10:10PM 30.5291 112.9231 354° North  Level Estimated
10:11PM 30.6371 112.9100 354° North  Level Estimated
10:12PM 30.7450 112.8969 354° North  Level Estimated
10:13PM 30.8530 112.8837 354° North  Level Estimated
10:14PM 30.9610 112.8705 354° North  Level Estimated
10:15PM 31.0689 112.8573 354° North  Level Estimated
10:16PM 31.1769 112.8441 354° North  Level Estimated
10:17PM 31.2849 112.8308 354° North  Level Estimated
10:18PM 31.3928 112.8175 354° North  Level Estimated
10:19PM 31.5008 112.8041 354° North  Level Estimated
10:20PM 31.6088 112.7908 354° North  Level Estimated
10:21PM 31.7167 112.7774 354° North  Level Estimated
10:22PM 31.8247 112.7639 354° North  Level Estimated
10:23PM 31.9326 112.7505 354° North  Level Estimated
10:24PM 32.0406 112.7370 354° North  Level Estimated
10:25PM 32.1485 112.7234 354° North  Level Estimated
10:26PM 32.2565 112.7099 354° North  Level Estimated
10:27PM 32.3644 112.6963 354° North  Level Estimated
10:28PM 32.4724 112.6827 354° North  Level Estimated
10:29PM 32.5803 112.6690 354° North  Level Estimated
10:30PM 32.6883 112.6553 354° North  Level Estimated
10:31PM 32.7962 112.6416 354° North  Level Estimated
10:32PM 32.9042 112.6278 354° North  Level Estimated
10:33PM 33.0121 112.6140 354° North  Level Estimated
10:34PM 33.1201 112.6002 354° North  Level Estimated
10:35PM 33.2280 112.5863 354° North  Level Estimated
10:36PM 33.3359 112.5725 354° North  Level Estimated
10:37PM 33.4439 112.5585 354° North  Level Estimated
10:38PM 33.5518 112.5446 354° North  Level Estimated
10:39PM 33.6598 112.5306 354° North  Level Estimated
10:40PM 33.7677 112.5165 354° North  Level Estimated
10:41PM 33.8756 112.5025 354° North  Level Estimated
10:42PM 33.9836 112.4884 354° North  Level Estimated
10:43PM 34.0915 112.4742 354° North  Level Estimated
10:44PM 34.1994 112.4601 354° North  Level Estimated
10:45PM 34.3073 112.4458 354° North  Level Estimated
10:46PM 34.4152 112.4316 354° North  Level Estimated
10:47PM 34.5232 112.4173 354° North  Level Estimated
10:48PM 34.6311 112.4030 354° North  Level Estimated
10:49PM 34.7390 112.3886 354° North  Level Estimated
10:50PM 34.7411 112.3883 354° North  Level Estimated
10:51PM 34.7411 112.3883 68° East  Level Estimated
10:52PM 34.7411 112.3883 68° East  Level Estimated
10:53PM 34.7411 112.3883 68° East  Level Estimated
10:54PM 34.7411 112.3883 68° East  Level Estimated
10:55PM 34.7411 112.3883 68° East  Level Estimated
10:56PM 34.7411 112.3883 68° East  Level Estimated
10:57PM 34.7411 112.3883 68° East  Level Estimated
10:58PM 34.7411 112.3883 68° East  Level Estimated